Time;durP1;ratioP1;P1;durP2;ratioP2;P2;SDS_P1;SDS_P2;PMS_P1;PMS_P2;Temp;Humidity;BMP_temperature;BMP_pressure;BME280_temperature;BME280_humidity;BME280_pressure;Samples;Min_cycle;Max_cycle;Signal;HPM_P1;HPM_P2
2021/05/13 00:00:10;;;;;;;28.80;18.67;;;9.60;99.90;;;;;;5079800;28;20131;-69
2021/05/13 00:02:42;;;;;;;25.73;18.05;;;9.60;99.90;;;;;;5078608;28;20051;-69
2021/05/13 00:05:10;;;;;;;24.58;17.48;;;9.60;99.90;;;;;;5057468;28;20047;-69
2021/05/13 00:07:40;;;;;;;26.95;17.60;;;9.60;99.90;;;;;;5067717;28;20051;-69
2021/05/13 00:10:10;;;;;;;23.50;16.38;;;9.70;99.90;;;;;;5078601;28;20044;-69
2021/05/13 00:12:41;;;;;;;24.65;17.58;;;9.60;99.90;;;;;;5059555;28;20048;-69
2021/05/13 00:15:24;;;;;;;23.67;16.40;;;9.70;99.90;;;;;;5082615;28;20118;-69
2021/05/13 00:17:52;;;;;;;23.90;17.35;;;9.70;99.90;;;;;;5079857;28;20040;-69
2021/05/13 00:20:26;;;;;;;23.70;16.88;;;9.70;99.90;;;;;;5069017;28;20065;-69
2021/05/13 00:22:54;;;;;;;21.15;15.98;;;9.70;99.90;;;;;;5076641;28;20127;-69
2021/05/13 00:25:22;;;;;;;26.35;17.48;;;9.70;99.90;;;;;;5066263;28;20052;-69
2021/05/13 00:27:50;;;;;;;25.75;18.73;;;9.60;99.90;;;;;;5065106;28;20040;-69
2021/05/13 00:30:19;;;;;;;25.77;17.95;;;9.60;99.90;;;;;;5058005;28;20036;-69
2021/05/13 00:32:47;;;;;;;27.70;19.08;;;9.70;99.90;;;;;;5063844;28;22070;-69
2021/05/13 00:35:17;;;;;;;25.13;18.42;;;9.70;99.90;;;;;;5079793;28;20050;-69
2021/05/13 00:37:45;;;;;;;24.63;17.67;;;9.60;99.90;;;;;;5080284;28;20510;-69
2021/05/13 00:40:15;;;;;;;25.17;17.63;;;9.60;99.90;;;;;;5047324;28;20090;-69
2021/05/13 00:42:43;;;;;;;25.40;17.58;;;9.50;99.90;;;;;;5086556;28;20044;-69
2021/05/13 00:45:12;;;;;;;23.33;17.27;;;9.50;99.90;;;;;;5059893;28;20059;-69
2021/05/13 00:47:48;;;;;;;24.90;17.30;;;9.50;99.90;;;;;;5084740;28;20060;-69
2021/05/13 00:50:16;;;;;;;23.63;17.10;;;9.50;99.90;;;;;;5081266;28;20067;-69
2021/05/13 00:52:45;;;;;;;24.10;17.25;;;9.50;99.90;;;;;;5080104;28;20521;-69
2021/05/13 00:55:15;;;;;;;22.33;17.10;;;9.40;99.90;;;;;;5076816;28;20131;-69
2021/05/13 00:57:46;;;;;;;25.08;18.30;;;9.40;99.90;;;;;;5068426;28;20123;-69
2021/05/13 01:03:02;;;;;;;21.48;16.08;;;9.40;99.90;;;;;;5080431;28;20048;-69
2021/05/13 01:05:30;;;;;;;27.15;18.77;;;9.30;99.90;;;;;;5083687;28;20044;-69
2021/05/13 01:07:59;;;;;;;23.17;16.85;;;9.30;99.90;;;;;;5089387;28;20510;-69
2021/05/13 01:10:28;;;;;;;30.60;19.63;;;9.30;99.90;;;;;;5069490;28;20568;-69
2021/05/13 01:13:00;;;;;;;24.17;18.70;;;9.30;99.90;;;;;;5086170;28;20048;-69
2021/05/13 01:18:28;;;;;;;26.55;18.98;;;9.30;99.90;;;;;;5078090;28;20075;-69
2021/05/13 01:20:56;;;;;;;26.20;18.10;;;9.20;99.90;;;;;;5077946;28;20071;-69
2021/05/13 01:23:25;;;;;;;30.75;20.42;;;9.20;99.90;;;;;;5087503;28;20055;-69
2021/05/13 01:25:55;;;;;;;30.27;21.83;;;9.20;99.90;;;;;;5077387;28;20033;-69
2021/05/13 01:28:27;;;;;;;30.80;20.90;;;9.10;99.90;;;;;;5055989;28;20036;-69
2021/05/13 01:30:55;;;;;;;27.98;20.23;;;9.10;99.90;;;;;;5062364;28;20476;-69
2021/05/13 01:33:25;;;;;;;29.73;19.52;;;9.10;99.90;;;;;;5067390;28;20044;-69
2021/05/13 01:35:55;;;;;;;27.30;19.67;;;9.10;99.90;;;;;;5073224;28;20516;-69
2021/05/13 01:38:24;;;;;;;30.33;20.80;;;9.10;99.90;;;;;;5089868;28;20098;-69
2021/05/13 01:40:54;;;;;;;29.30;20.63;;;9.10;99.90;;;;;;5085592;28;20520;-70
2021/05/13 01:43:29;;;;;;;29.83;20.20;;;9.10;99.90;;;;;;5073821;28;20056;-69
2021/05/13 01:45:59;;;;;;;29.10;20.25;;;9.10;99.90;;;;;;5082396;28;20052;-69
2021/05/13 01:48:30;;;;;;;28.77;20.48;;;9.00;99.90;;;;;;5090132;28;20494;-69
2021/05/13 01:50:58;;;;;;;27.83;20.23;;;9.00;99.90;;;;;;5070412;28;20056;-69
2021/05/13 01:53:25;;;;;;;28.60;20.05;;;9.00;99.90;;;;;;5065405;28;20072;-69
2021/05/13 01:55:53;;;;;;;26.23;19.80;;;9.00;99.90;;;;;;5087920;28;20040;-69
2021/05/13 01:58:21;;;;;;;30.38;21.48;;;9.10;99.90;;;;;;5071020;28;20044;-69
2021/05/13 02:00:49;;;;;;;27.73;20.55;;;9.00;99.90;;;;;;5083267;28;20040;-69
2021/05/13 02:03:18;;;;;;;32.22;21.20;;;9.00;99.90;;;;;;5069722;28;20113;-69
2021/05/13 02:05:45;;;;;;;30.90;20.48;;;9.00;99.90;;;;;;5065193;28;20475;-69
2021/05/13 02:08:12;;;;;;;28.40;20.65;;;9.00;99.90;;;;;;5067177;28;20067;-69
2021/05/13 02:10:40;;;;;;;33.60;22.23;;;9.00;99.90;;;;;;5081547;28;20131;-69
2021/05/13 02:13:07;;;;;;;29.35;20.40;;;9.00;99.90;;;;;;5082129;28;20048;-69
2021/05/13 02:15:35;;;;;;;32.25;23.10;;;9.00;99.90;;;;;;5088388;28;20048;-69
2021/05/13 02:18:04;;;;;;;31.67;23.25;;;9.00;99.90;;;;;;5088501;28;20358;-69
2021/05/13 02:20:32;;;;;;;29.42;21.23;;;9.00;99.90;;;;;;5062436;28;20127;-69
2021/05/13 02:23:00;;;;;;;30.08;22.33;;;9.00;99.90;;;;;;5086903;28;20144;-69
2021/05/13 02:25:31;;;;;;;32.08;21.65;;;8.90;99.90;;;;;;5061301;28;20388;-69
2021/05/13 02:27:59;;;;;;;31.33;21.67;;;8.90;99.90;;;;;;5081746;28;20071;-69
2021/05/13 02:30:27;;;;;;;32.28;22.10;;;8.90;99.90;;;;;;5067263;28;20117;-69
2021/05/13 02:33:09;;;;;;;30.65;20.10;;;8.90;99.90;;;;;;5061201;28;20045;-69
2021/05/13 02:35:38;;;;;;;28.95;21.65;;;8.90;99.90;;;;;;5082244;28;20040;-69
2021/05/13 02:38:05;;;;;;;28.92;21.50;;;8.90;99.90;;;;;;5061554;28;20086;-69
2021/05/13 02:40:33;;;;;;;29.10;21.58;;;8.90;99.90;;;;;;5072132;28;20051;-69
2021/05/13 02:43:03;;;;;;;29.40;20.83;;;8.90;99.90;;;;;;5090591;28;20057;-69
2021/05/13 02:45:31;;;;;;;27.98;19.98;;;8.90;99.90;;;;;;5052718;28;20434;-69
2021/05/13 02:47:58;;;;;;;29.77;22.00;;;8.90;99.90;;;;;;5058595;28;20052;-69
2021/05/13 02:50:26;;;;;;;33.50;23.17;;;8.90;99.90;;;;;;5077895;28;20162;-69
2021/05/13 02:52:53;;;;;;;30.05;20.60;;;8.90;99.90;;;;;;5063985;28;20509;-69
2021/05/13 02:55:21;;;;;;;27.88;20.83;;;9.00;99.90;;;;;;5058860;28;20506;-69
2021/05/13 02:57:49;;;;;;;23.65;18.38;;;9.00;99.90;;;;;;5080448;28;20064;-69
2021/05/13 03:03:14;;;;;;;30.65;21.83;;;8.90;99.90;;;;;;5027647;28;20049;-69
2021/05/13 03:05:41;;;;;;;32.90;22.25;;;8.90;99.90;;;;;;5029727;28;20057;-69
2021/05/13 03:08:10;;;;;;;25.92;18.67;;;8.90;99.90;;;;;;5029014;28;20042;-69
2021/05/13 03:13:16;;;;;;;26.77;19.33;;;9.00;99.90;;;;;;5032316;28;20124;-69
2021/05/13 03:15:44;;;;;;;27.52;19.95;;;9.00;99.90;;;;;;5028430;28;20057;-69
2021/05/13 03:18:11;;;;;;;26.10;19.80;;;9.00;99.90;;;;;;5017928;28;20056;-69
2021/05/13 03:20:41;;;;;;;26.17;17.90;;;9.00;99.90;;;;;;5027434;28;20051;-69
2021/05/13 03:23:11;;;;;;;26.17;20.02;;;9.00;99.90;;;;;;5026282;28;20044;-69
2021/05/13 03:25:41;;;;;;;26.38;18.67;;;8.90;99.90;;;;;;5028268;28;20050;-69
2021/05/13 03:28:09;;;;;;;27.77;19.15;;;9.00;99.90;;;;;;5026588;28;20056;-69
2021/05/13 03:30:45;;;;;;;29.00;19.52;;;9.00;99.90;;;;;;5028085;28;20121;-69
2021/05/13 03:33:13;;;;;;;28.35;18.40;;;9.00;99.90;;;;;;5028448;28;20112;-69
2021/05/13 03:35:41;;;;;;;23.88;17.45;;;9.00;99.90;;;;;;5028827;28;20416;-69
2021/05/13 03:38:10;;;;;;;25.60;18.63;;;9.00;99.90;;;;;;5029266;28;20049;-69
2021/05/13 03:40:39;;;;;;;24.30;18.48;;;9.00;99.90;;;;;;5076240;28;20048;-69
2021/05/13 03:43:08;;;;;;;25.65;19.73;;;9.00;99.90;;;;;;5060091;28;20048;-69
2021/05/13 03:45:36;;;;;;;26.95;19.70;;;9.00;99.90;;;;;;5045756;28;20498;-69
2021/05/13 03:48:04;;;;;;;26.65;18.45;;;9.00;99.90;;;;;;5063720;28;20044;-69
2021/05/13 03:50:38;;;;;;;26.60;19.65;;;9.00;99.90;;;;;;5085536;28;20047;-69
2021/05/13 03:53:08;;;;;;;24.85;17.95;;;9.00;99.90;;;;;;5082852;28;20055;-69
2021/05/13 03:55:36;;;;;;;30.60;19.83;;;9.00;99.90;;;;;;5057502;28;20053;-69
2021/05/13 03:58:05;;;;;;;27.42;20.30;;;9.10;99.90;;;;;;5069898;28;20082;-69
2021/05/13 04:03:21;;;;;;;26.58;19.50;;;9.10;99.90;;;;;;5064156;28;20462;-69
2021/05/13 04:05:48;;;;;;;27.08;19.15;;;9.00;99.90;;;;;;5078594;28;20410;-68
2021/05/13 04:08:16;;;;;;;28.90;19.38;;;9.10;99.90;;;;;;5081469;28;20052;-69
2021/05/13 04:10:44;;;;;;;29.08;19.52;;;9.10;99.90;;;;;;5081537;28;20568;-69
2021/05/13 04:13:13;;;;;;;26.92;19.25;;;9.10;99.90;;;;;;5056727;28;20044;-69
2021/05/13 04:15:55;;;;;;;26.48;18.88;;;9.10;99.90;;;;;;5061724;28;20032;-69
2021/05/13 04:18:23;;;;;;;24.35;17.95;;;9.10;99.90;;;;;;5086088;28;20491;-69
2021/05/13 04:20:50;;;;;;;24.30;18.52;;;9.20;99.90;;;;;;5063056;28;20064;-69
2021/05/13 04:23:18;;;;;;;23.42;17.63;;;9.30;99.90;;;;;;5080411;28;20051;-69
2021/05/13 04:25:45;;;;;;;26.17;17.85;;;9.30;99.90;;;;;;5057134;28;20071;-69
2021/05/13 04:28:13;;;;;;;22.63;17.73;;;9.20;99.90;;;;;;5067720;28;20115;-69
2021/05/13 04:30:40;;;;;;;22.35;15.45;;;9.30;99.90;;;;;;5083560;28;20134;-69
2021/05/13 04:33:08;;;;;;;25.15;17.38;;;9.40;99.90;;;;;;5072986;28;20054;-69
2021/05/13 04:35:35;;;;;;;19.85;14.77;;;9.50;99.90;;;;;;5062530;28;20045;-69
2021/05/13 04:38:02;;;;;;;27.23;16.83;;;9.50;99.90;;;;;;5080950;28;20072;-69
2021/05/13 04:40:30;;;;;;;25.20;16.67;;;9.50;99.90;;;;;;5085130;28;20453;-68
2021/05/13 04:42:58;;;;;;;20.73;14.93;;;9.60;99.90;;;;;;5064692;28;20382;-68
2021/05/13 04:45:26;;;;;;;18.15;13.75;;;9.60;99.90;;;;;;5085473;28;20044;-69
2021/05/13 04:50:26;;;;;;;20.90;14.05;;;9.60;99.90;;;;;;5085755;28;20052;-68
2021/05/13 04:52:54;;;;;;;17.33;13.70;;;9.70;99.90;;;;;;5084269;28;20421;-68
2021/05/13 04:55:21;;;;;;;19.63;14.68;;;9.80;99.90;;;;;;5078184;28;20044;-69
2021/05/13 04:57:49;;;;;;;17.17;13.27;;;9.80;99.90;;;;;;5090604;28;20036;-68
2021/05/13 05:00:17;;;;;;;21.50;14.15;;;9.80;99.90;;;;;;5080427;28;20165;-69
2021/05/13 05:02:44;;;;;;;19.33;14.45;;;9.80;99.90;;;;;;5088135;28;20154;-68
2021/05/13 05:05:12;;;;;;;19.42;14.20;;;9.80;99.90;;;;;;5070180;28;20391;-68
2021/05/13 05:07:39;;;;;;;19.08;13.07;;;9.80;99.90;;;;;;5088924;28;20483;-68
2021/05/13 05:10:10;;;;;;;18.58;13.63;;;9.80;99.90;;;;;;5066053;28;20098;-68
2021/05/13 05:12:38;;;;;;;21.42;15.60;;;9.90;99.90;;;;;;5079735;28;20044;-69
2021/05/13 05:15:06;;;;;;;18.55;15.00;;;9.90;99.90;;;;;;5089653;28;20044;-69
2021/05/13 05:17:34;;;;;;;19.27;13.73;;;9.90;99.90;;;;;;5081550;28;20419;-69
2021/05/13 05:20:02;;;;;;;20.73;14.68;;;9.80;99.90;;;;;;5083010;28;20052;-68
2021/05/13 05:22:29;;;;;;;50.55;32.63;;;9.80;99.90;;;;;;5074575;28;20078;-69
2021/05/13 05:24:57;;;;;;;21.02;14.93;;;9.80;99.90;;;;;;5070670;28;20134;-68
2021/05/13 05:27:24;;;;;;;22.17;15.60;;;9.80;99.90;;;;;;5080048;28;20102;-68
2021/05/13 05:29:52;;;;;;;18.55;14.68;;;9.90;99.90;;;;;;5059848;28;20414;-69
2021/05/13 05:32:19;;;;;;;21.92;15.13;;;9.90;99.90;;;;;;5059153;28;20044;-69
2021/05/13 05:34:47;;;;;;;19.23;14.43;;;9.90;99.90;;;;;;5090136;28;20740;-69
2021/05/13 05:37:14;;;;;;;23.73;15.57;;;9.90;99.90;;;;;;5088273;28;20048;-68
2021/05/13 05:39:41;;;;;;;20.52;15.75;;;9.90;99.90;;;;;;5068831;28;20076;-68
2021/05/13 05:42:09;;;;;;;21.13;15.45;;;10.00;99.90;;;;;;5082936;28;20048;-68
2021/05/13 05:44:36;;;;;;;21.35;15.02;;;10.00;99.90;;;;;;5083538;28;20496;-68
2021/05/13 05:47:03;;;;;;;21.85;15.38;;;10.00;99.90;;;;;;5061701;28;20045;-69
2021/05/13 05:49:31;;;;;;;18.42;14.38;;;10.00;99.90;;;;;;5085591;28;20094;-69
2021/05/13 05:51:58;;;;;;;22.77;15.95;;;10.10;99.90;;;;;;5076952;28;20056;-69
2021/05/13 05:54:26;;;;;;;20.55;15.40;;;10.20;99.90;;;;;;5081802;28;20590;-69
2021/05/13 05:56:53;;;;;;;22.17;15.80;;;10.20;99.90;;;;;;5085576;28;20040;-69
2021/05/13 05:59:21;;;;;;;22.42;14.52;;;10.30;99.90;;;;;;5064969;28;20071;-69
2021/05/13 06:01:49;;;;;;;22.15;14.30;;;10.40;99.90;;;;;;5086137;28;20044;-69
2021/05/13 06:04:17;;;;;;;21.55;15.43;;;10.40;99.90;;;;;;5068392;28;20043;-69
2021/05/13 06:06:45;;;;;;;21.58;16.10;;;10.50;99.90;;;;;;5064948;28;20047;-71
2021/05/13 06:09:13;;;;;;;22.88;15.50;;;10.40;99.90;;;;;;5084790;28;20052;-68
2021/05/13 06:11:40;;;;;;;20.75;13.85;;;10.40;99.90;;;;;;5048997;28;20049;-68
2021/05/13 06:14:08;;;;;;;20.77;13.90;;;10.50;99.90;;;;;;5055758;28;20044;-70
2021/05/13 06:16:35;;;;;;;18.20;13.63;;;10.60;99.90;;;;;;5067645;28;20067;-70
2021/05/13 06:19:02;;;;;;;17.95;13.65;;;10.70;99.90;;;;;;5083424;28;20399;-70
2021/05/13 06:21:30;;;;;;;25.60;14.32;;;10.80;99.90;;;;;;5083979;28;20105;-70
2021/05/13 06:24:00;;;;;;;20.70;13.65;;;10.90;99.90;;;;;;5086849;28;20044;-70
2021/05/13 06:26:31;;;;;;;17.45;10.98;;;11.10;99.90;;;;;;5076508;28;20052;-70
2021/05/13 06:29:07;;;;;;;18.90;14.05;;;11.20;99.90;;;;;;5076906;28;20443;-70
2021/05/13 06:31:35;;;;;;;20.27;11.98;;;11.30;99.90;;;;;;5079971;28;20109;-70
2021/05/13 06:34:04;;;;;;;14.40;11.70;;;11.40;99.90;;;;;;5066779;28;20131;-70
2021/05/13 06:36:31;;;;;;;16.30;11.15;;;11.60;99.90;;;;;;5085213;28;20483;-70
2021/05/13 06:38:59;;;;;;;17.17;12.93;;;11.60;99.90;;;;;;5083972;28;20441;-70
2021/05/13 06:41:26;;;;;;;17.67;11.82;;;11.50;99.90;;;;;;5077912;28;20052;-70
2021/05/13 06:43:53;;;;;;;16.50;11.73;;;11.70;99.90;;;;;;5052130;28;20097;-70
2021/05/13 06:46:24;;;;;;;15.57;11.88;;;11.70;99.90;;;;;;5084392;28;20526;-69
2021/05/13 06:48:52;;;;;;;14.57;10.88;;;11.80;99.90;;;;;;5054337;28;20055;-70
2021/05/13 06:51:20;;;;;;;19.08;11.82;;;11.90;99.90;;;;;;5065782;28;20044;-70
2021/05/13 06:53:48;;;;;;;15.38;11.23;;;12.10;99.90;;;;;;5084590;28;20514;-70
2021/05/13 06:56:16;;;;;;;16.10;11.40;;;12.20;99.90;;;;;;5073598;28;20052;-70
2021/05/13 06:58:45;;;;;;;14.98;12.50;;;12.50;99.90;;;;;;5068524;28;20044;-70
2021/05/13 07:01:12;;;;;;;16.75;12.02;;;12.40;99.90;;;;;;5070222;28;20040;-70
2021/05/13 07:03:40;;;;;;;15.95;11.57;;;12.40;99.90;;;;;;5069630;28;20549;-71
2021/05/13 07:06:12;;;;;;;;;;;12.60;99.90;;;;;;5071376;28;20139;-70
2021/05/13 07:08:39;;;;;;;15.63;11.45;;;12.80;99.90;;;;;;5081117;28;19924;-69
2021/05/13 07:11:06;;;;;;;13.73;10.85;;;12.90;99.90;;;;;;5068287;28;20441;-69
2021/05/13 07:13:36;;;;;;;15.23;11.18;;;12.80;99.90;;;;;;5047111;28;20055;-69
2021/05/13 07:16:04;;;;;;;21.77;11.13;;;12.80;99.90;;;;;;5089356;28;20565;-68
2021/05/13 07:18:31;;;;;;;15.05;11.10;;;13.00;99.90;;;;;;5079825;28;20039;-68
2021/05/13 07:20:59;;;;;;;16.42;11.07;;;13.10;99.90;;;;;;5081536;28;20143;-68
2021/05/13 07:23:26;;;;;;;13.52;10.48;;;13.30;99.90;;;;;;5081663;28;20829;-69
2021/05/13 07:25:55;;;;;;;12.98;10.27;;;13.40;99.90;;;;;;5084032;28;20044;-70
2021/05/13 07:28:23;;;;;;;12.63;10.85;;;13.60;99.90;;;;;;5054869;28;20044;-69
2021/05/13 07:30:50;;;;;;;13.32;10.85;;;13.80;99.90;;;;;;5064436;28;20127;-69
2021/05/13 07:33:18;;;;;;;12.68;9.27;;;13.90;99.90;;;;;;5066197;28;20044;-69
2021/05/13 07:35:46;;;;;;;14.48;10.02;;;13.80;99.90;;;;;;5085463;28;20050;-70
2021/05/13 07:38:14;;;;;;;12.50;10.05;;;13.90;99.90;;;;;;5052789;28;20088;-69
2021/05/13 07:40:41;;;;;;;11.75;9.55;;;13.90;99.90;;;;;;5080538;28;20044;-70
2021/05/13 07:43:09;;;;;;;12.25;9.52;;;14.00;99.90;;;;;;5083211;28;20086;-72
2021/05/13 07:45:44;;;;;;;11.73;9.23;;;14.10;99.90;;;;;;5063712;28;20045;-70
2021/05/13 07:48:12;;;;;;;12.77;8.88;;;14.10;99.90;;;;;;5064806;28;20094;-69
2021/05/13 07:50:40;;;;;;;13.52;9.63;;;14.10;99.90;;;;;;5076660;28;20063;-68
2021/05/13 07:53:08;;;;;;;13.18;9.60;;;14.00;99.90;;;;;;5058221;28;20050;-69
2021/05/13 07:55:37;;;;;;;14.07;10.65;;;13.90;99.90;;;;;;5052757;28;20052;-69
2021/05/13 07:58:04;;;;;;;13.40;9.93;;;13.70;99.90;;;;;;5080070;28;20055;-69
2021/05/13 08:00:32;;;;;;;11.80;10.10;;;13.70;99.90;;;;;;5064146;28;20052;-69
2021/05/13 08:02:59;;;;;;;11.88;9.88;;;13.60;99.90;;;;;;5084149;28;20036;-69
2021/05/13 08:05:27;;;;;;;13.98;9.75;;;13.50;99.90;;;;;;5076730;28;20068;-69
2021/05/13 08:07:54;;;;;;;12.10;9.82;;;13.60;99.90;;;;;;5066754;28;20048;-69
2021/05/13 08:10:21;;;;;;;13.88;9.80;;;13.70;99.90;;;;;;5060160;28;20406;-69
2021/05/13 08:12:49;;;;;;;12.77;9.48;;;13.70;99.90;;;;;;5083455;28;20051;-69
2021/05/13 08:15:17;;;;;;;13.40;9.85;;;13.80;99.90;;;;;;5056563;28;20147;-69
2021/05/13 08:17:44;;;;;;;12.63;10.02;;;14.00;99.90;;;;;;5079268;28;20437;-68
2021/05/13 08:20:14;;;;;;;15.07;11.10;;;13.90;99.90;;;;;;5064882;28;20547;-69
2021/05/13 08:22:42;;;;;;;16.58;10.07;;;14.10;99.90;;;;;;5047908;28;20048;-70
2021/05/13 08:25:11;;;;;;;12.75;8.93;;;14.30;99.90;;;;;;5080858;28;20564;-70
2021/05/13 08:27:39;;;;;;;11.18;9.15;;;14.50;99.90;;;;;;5082795;28;20053;-69
2021/05/13 08:30:08;;;;;;;10.57;8.80;;;14.70;99.90;;;;;;5079907;28;20135;-68
2021/05/13 08:32:35;;;;;;;11.80;8.88;;;14.70;99.90;;;;;;5070856;28;20427;-68
2021/05/13 08:35:03;;;;;;;13.93;9.88;;;14.60;99.90;;;;;;5083392;28;20055;-68
2021/05/13 08:37:31;;;;;;;10.80;9.02;;;14.70;99.90;;;;;;5067440;28;20062;-68
2021/05/13 08:39:58;;;;;;;14.38;9.55;;;14.80;99.90;;;;;;5077117;28;20067;-68
2021/05/13 08:42:26;;;;;;;10.43;9.00;;;14.80;99.90;;;;;;5086050;28;20101;-68
2021/05/13 08:44:53;;;;;;;10.32;8.18;;;14.90;99.90;;;;;;5076782;28;20053;-68
2021/05/13 08:47:21;;;;;;;11.27;8.43;;;14.90;99.90;;;;;;5053604;28;20074;-68
2021/05/13 08:49:49;;;;;;;10.93;8.05;;;15.20;99.90;;;;;;5066759;28;20051;-68
2021/05/13 08:52:18;;;;;;;12.75;8.73;;;15.30;99.90;;;;;;5082454;28;20048;-68
2021/05/13 08:54:53;;;;;;;10.88;7.75;;;15.40;99.90;;;;;;5041349;28;20471;-68
2021/05/13 08:57:22;;;;;;;10.65;8.85;;;15.60;99.90;;;;;;5081144;28;20037;-68
2021/05/13 08:59:50;;;;;;;11.60;8.18;;;15.80;99.90;;;;;;5077686;28;20044;-68
2021/05/13 09:02:19;;;;;;;9.18;7.75;;;15.80;99.90;;;;;;5080389;28;20040;-69
2021/05/13 09:04:48;;;;;;;9.68;8.43;;;15.90;99.90;;;;;;5080553;28;20494;-68
2021/05/13 09:07:36;;;;;;;9.95;8.13;;;16.10;99.90;;;;;;5086846;28;20479;-69
2021/05/13 09:10:12;;;;;;;12.98;8.57;;;16.20;99.90;;;;;;5066781;28;20089;-68
2021/05/13 09:12:50;;;;;;;9.27;7.85;;;15.90;99.90;;;;;;5081638;28;20074;-68
2021/05/13 09:15:21;;;;;;;12.07;8.20;;;16.00;99.90;;;;;;5086847;28;20045;-69
2021/05/13 09:17:51;;;;;;;9.95;8.68;;;16.20;99.90;;;;;;5081962;28;20066;-68
2021/05/13 09:20:24;;;;;;;9.93;8.27;;;16.00;99.90;;;;;;5081743;28;20052;-69
2021/05/13 09:22:53;;;;;;;12.25;7.63;;;16.40;99.90;;;;;;5087415;28;20046;-69
2021/05/13 09:25:20;;;;;;;9.57;7.93;;;16.60;99.90;;;;;;5067337;28;20056;-70
2021/05/13 09:27:49;;;;;;;10.85;8.30;;;16.40;99.90;;;;;;5079187;28;20056;-70
2021/05/13 09:30:20;;;;;;;9.05;7.53;;;16.10;99.90;;;;;;5080043;28;20055;-70
2021/05/13 09:32:51;;;;;;;9.52;7.80;;;15.80;99.90;;;;;;5065243;28;20120;-69
2021/05/13 09:35:24;;;;;;;9.93;7.72;;;15.70;99.90;;;;;;5052067;28;20036;-69
2021/05/13 09:37:53;;;;;;;10.13;7.70;;;15.70;99.90;;;;;;5085000;28;20044;-69
2021/05/13 09:40:32;;;;;;;9.05;7.20;;;15.90;99.90;;;;;;5085236;28;20048;-69
2021/05/13 09:43:21;;;;;;;9.65;6.90;;;16.00;99.90;;;;;;5087880;28;20129;-69
2021/05/13 09:46:01;;;;;;;8.35;7.45;;;16.50;99.90;;;;;;5067920;28;20055;-69
2021/05/13 09:48:43;;;;;;;12.15;7.20;;;17.00;99.90;;;;;;5080279;28;20136;-68
2021/05/13 09:51:19;;;;;;;9.75;7.57;;;17.50;99.90;;;;;;5067440;28;20048;-70
2021/05/13 09:53:48;;;;;;;9.40;7.35;;;17.60;99.90;;;;;;5083498;28;20048;-70
2021/05/13 09:56:22;;;;;;;8.00;7.20;;;17.80;99.90;;;;;;5088167;28;20086;-69
2021/05/13 09:58:49;;;;;;;9.93;8.05;;;17.80;99.90;;;;;;5084545;28;20090;-69
2021/05/13 10:01:17;;;;;;;10.90;8.57;;;18.00;99.90;;;;;;5088092;28;20490;-69
2021/05/13 10:03:54;;;;;;;10.10;9.05;;;18.20;99.90;;;;;;5089996;28;20486;-70
2021/05/13 10:06:22;;;;;;;10.77;8.40;;;18.20;99.90;;;;;;5066050;28;20040;-70
2021/05/13 10:08:49;;;;;;;8.68;7.80;;;17.80;99.90;;;;;;5087335;28;20566;-69
2021/05/13 10:11:18;;;;;;;9.45;8.43;;;17.80;99.90;;;;;;5084608;28;20079;-69
2021/05/13 10:13:45;;;;;;;10.60;8.38;;;17.90;99.90;;;;;;5048108;28;20143;-69
2021/05/13 10:16:13;;;;;;;9.35;8.38;;;18.10;99.90;;;;;;5083771;28;20071;-69
2021/05/13 10:18:43;;;;;;;8.60;7.72;;;18.40;99.90;;;;;;5059006;28;20090;-69
2021/05/13 10:21:21;;;;;;;10.30;8.35;;;18.50;99.90;;;;;;5089878;28;20085;-69
2021/05/13 10:23:50;;;;;;;9.45;8.50;;;18.40;99.90;;;;;;5086025;28;20044;-69
2021/05/13 10:26:41;;;;;;;9.20;8.05;;;18.40;99.90;;;;;;5090747;28;20036;-69
2021/05/13 10:29:23;;;;;;;8.68;7.78;;;18.20;99.90;;;;;;5086715;28;20044;-69
2021/05/13 10:32:07;;;;;;;8.50;7.70;;;18.00;99.90;;;;;;5089119;28;20044;-69
2021/05/13 10:34:41;;;;;;;7.60;6.70;;;18.10;99.90;;;;;;5054617;28;20783;-69
2021/05/13 10:37:26;;;;;;;8.23;7.32;;;18.20;99.90;;;;;;5064514;28;20045;-69
2021/05/13 10:40:07;;;;;;;8.30;7.50;;;18.40;99.90;;;;;;5082069;28;20049;-69
2021/05/13 10:42:37;;;;;;;11.80;8.43;;;18.50;99.90;;;;;;5081156;28;20048;-69
2021/05/13 10:45:23;;;;;;;9.73;7.57;;;18.30;99.90;;;;;;5075144;28;20082;-69
2021/05/13 10:48:25;;;;;;;8.90;7.78;;;18.20;99.90;;;;;;5079031;28;20053;-69
2021/05/13 10:51:04;;;;;;;10.77;7.95;;;18.00;99.90;;;;;;5078023;28;20056;-69
2021/05/13 10:53:48;;;;;;;8.40;7.10;;;18.00;99.90;;;;;;5078804;28;20117;-70
2021/05/13 10:56:28;;;;;;;9.13;7.43;;;18.00;99.90;;;;;;5065767;28;20048;-69
2021/05/13 11:01:47;;;;;;;8.73;7.47;;;18.20;99.90;;;;;;5075715;28;20044;-69
2021/05/13 11:04:21;;;;;;;9.55;8.07;;;18.20;99.90;;;;;;5050397;28;20537;-71
2021/05/13 11:06:51;;;;;;;8.60;7.75;;;18.50;99.90;;;;;;5061371;28;20066;-70
2021/05/13 11:12:11;;;;;;;8.80;8.00;;;18.80;99.90;;;;;;5078666;28;20048;-71
2021/05/13 11:15:27;;;;;;;11.23;8.43;;;18.80;99.90;;;;;;5058823;28;20048;-69
2021/05/13 11:17:59;;;;;;;10.65;7.93;;;18.90;99.90;;;;;;5058138;28;20049;-69
2021/05/13 11:20:28;;;;;;;;;;;19.10;99.90;;;;;;5073264;28;20036;-69
2021/05/13 11:23:21;;;;;;;8.55;7.15;;;19.20;99.90;;;;;;5079143;28;19924;-69
2021/05/13 11:26:06;;;;;;;9.02;8.10;;;19.40;99.90;;;;;;5079023;28;20102;-69
2021/05/13 11:28:34;;;;;;;8.60;7.43;;;19.60;99.90;;;;;;5058528;28;20094;-69
2021/05/13 11:31:05;;;;;;;10.10;8.30;;;19.80;99.90;;;;;;5065894;28;20438;-69
2021/05/13 11:33:48;;;;;;;8.77;7.88;;;19.80;99.90;;;;;;5081497;28;20081;-69
2021/05/13 11:36:18;;;;;;;8.57;7.50;;;19.40;99.90;;;;;;5071489;28;20101;-69
2021/05/13 11:38:58;;;;;;;11.45;7.85;;;19.40;99.90;;;;;;5061316;28;20037;-69
2021/05/13 11:41:26;;;;;;;9.00;8.10;;;19.40;99.90;;;;;;5068969;28;20052;-69
2021/05/13 11:43:54;;;;;;;7.75;7.07;;;19.50;99.90;;;;;;5073645;28;20049;-69
2021/05/13 11:46:23;;;;;;;8.85;7.95;;;19.40;99.90;;;;;;5079698;28;20131;-69
2021/05/13 11:48:52;;;;;;;8.95;8.05;;;19.50;99.90;;;;;;5072637;28;20063;-69
2021/05/13 11:51:24;;;;;;;8.65;7.82;;;19.30;99.90;;;;;;5080521;28;20047;-69
2021/05/13 11:54:03;;;;;;;9.13;7.88;;;19.30;99.90;;;;;;5075690;28;20097;-69
2021/05/13 11:56:34;;;;;;;11.25;8.15;;;19.30;99.90;;;;;;5078302;28;20105;-70
2021/05/13 11:59:03;;;;;;;11.88;8.23;;;19.00;99.90;;;;;;5079475;28;20048;-69
2021/05/13 12:01:36;;;;;;;8.95;8.15;;;19.00;99.90;;;;;;5076673;28;20490;-69
2021/05/13 12:04:14;;;;;;;12.80;8.70;;;19.00;99.90;;;;;;5076010;28;20074;-69
2021/05/13 12:07:00;;;;;;;9.75;8.82;;;18.90;99.90;;;;;;5078012;28;20063;-69
2021/05/13 12:09:31;;;;;;;10.23;8.40;;;18.60;99.90;;;;;;5083029;28;20078;-69
2021/05/13 12:12:01;;;;;;;10.60;8.45;;;18.40;99.90;;;;;;5059528;28;20064;-69
2021/05/13 12:14:31;;;;;;;10.25;9.18;;;18.10;99.90;;;;;;5059984;28;20047;-69
2021/05/13 12:17:03;;;;;;;11.27;9.00;;;18.00;99.90;;;;;;5078429;28;20048;-69
2021/05/13 12:19:38;;;;;;;9.70;8.75;;;17.80;99.90;;;;;;5064165;28;21499;-69
2021/05/13 12:22:09;;;;;;;10.80;9.65;;;17.60;99.90;;;;;;5064497;28;20037;-69
2021/05/13 12:24:42;;;;;;;10.75;9.23;;;17.40;99.90;;;;;;5068304;28;20048;-70
2021/05/13 12:27:17;;;;;;;9.07;8.13;;;17.40;99.90;;;;;;5068265;28;20510;-70
2021/05/13 12:29:48;;;;;;;9.52;8.60;;;17.40;99.90;;;;;;5074251;28;20055;-70
2021/05/13 12:32:32;;;;;;;10.80;8.40;;;17.40;99.90;;;;;;5078371;28;20063;-70
2021/05/13 12:35:00;;;;;;;9.43;8.50;;;17.30;99.90;;;;;;5085733;28;20044;-70
2021/05/13 12:37:28;;;;;;;8.82;8.02;;;17.20;99.90;;;;;;5049163;28;20042;-70
2021/05/13 12:39:55;;;;;;;9.25;8.48;;;17.20;99.90;;;;;;5065630;28;20052;-70
2021/05/13 12:42:31;;;;;;;9.30;7.78;;;17.30;99.90;;;;;;5085228;28;20044;-70
2021/05/13 12:45:18;;;;;;;10.30;7.18;;;17.20;99.90;;;;;;5084281;28;20048;-70
2021/05/13 12:48:02;;;;;;;11.15;8.68;;;17.20;99.90;;;;;;5072351;28;20083;-70
2021/05/13 12:50:32;;;;;;;11.10;8.15;;;17.10;99.90;;;;;;5086082;28;20088;-70
2021/05/13 12:53:17;;;;;;;8.60;7.75;;;17.10;99.90;;;;;;5086992;28;20051;-70
2021/05/13 12:55:46;;;;;;;9.75;8.30;;;16.80;99.90;;;;;;5068244;28;20082;-71
2021/05/13 12:58:19;;;;;;;8.70;7.90;;;16.80;99.90;;;;;;5089844;28;20059;-70
2021/05/13 13:00:56;;;;;;;9.98;8.35;;;16.90;99.90;;;;;;5087811;28;20050;-70
2021/05/13 13:03:34;;;;;;;8.45;7.70;;;16.80;99.90;;;;;;5085425;28;20109;-70
2021/05/13 13:06:10;;;;;;;9.80;8.00;;;16.80;99.90;;;;;;5075102;28;20040;-70
2021/05/13 13:08:39;;;;;;;10.30;8.25;;;16.90;99.90;;;;;;5062292;28;20052;-71
2021/05/13 13:11:07;;;;;;;8.82;8.02;;;16.90;99.90;;;;;;5043258;28;20067;-70
2021/05/13 13:13:48;;;;;;;9.13;8.20;;;16.60;99.90;;;;;;5083313;28;20044;-70
2021/05/13 13:16:25;;;;;;;8.70;7.90;;;16.50;99.90;;;;;;5072401;28;20032;-71